createdAt,value
2022-08-17T00:01:51.553Z,20.90
2022-08-17T00:04:20.474Z,20.90
2022-08-17T00:06:49.096Z,21.00
2022-08-17T00:09:18.728Z,20.90
2022-08-17T00:12:41.838Z,20.90
2022-08-17T00:14:36.213Z,20.90
2022-08-17T00:17:04.762Z,20.90
2022-08-17T00:19:32.885Z,21.00
2022-08-17T00:22:34.815Z,21.00
2022-08-17T00:24:50.246Z,21.00
2022-08-17T00:27:18.121Z,21.00
2022-08-17T00:29:45.863Z,21.00
2022-08-17T00:33:13.958Z,21.00
2022-08-17T00:35:06.210Z,21.00
2022-08-17T00:37:33.137Z,21.00
2022-08-17T00:40:00.153Z,20.90
2022-08-17T00:42:30.912Z,20.90
2022-08-17T00:44:58.632Z,20.90
2022-08-17T00:47:25.883Z,20.90
2022-08-17T00:49:53.178Z,20.90
2022-08-17T00:52:24.918Z,20.90
2022-08-17T00:54:54.639Z,20.90
2022-08-17T00:57:29.999Z,20.90
2022-08-17T01:00:03.800Z,20.90
2022-08-17T01:02:51.754Z,20.90
2022-08-17T01:05:21.427Z,20.90
2022-08-17T01:07:50.919Z,20.90
2022-08-17T01:11:00.532Z,20.90
2022-08-17T01:13:13.396Z,20.90
2022-08-17T01:15:46.416Z,20.90
2022-08-17T01:18:14.458Z,20.90
2022-08-17T01:20:49.322Z,20.80
2022-08-17T01:23:20.981Z,20.80
2022-08-17T01:26:01.431Z,20.80
2022-08-17T01:28:53.073Z,20.80
2022-08-17T01:31:19.652Z,20.80
2022-08-17T01:33:46.626Z,20.80
2022-08-17T01:36:13.574Z,20.80
2022-08-17T01:38:40.606Z,20.80
2022-08-17T01:41:12.369Z,20.80
2022-08-17T01:43:53.944Z,20.70
2022-08-17T01:46:24.859Z,20.70
2022-08-17T01:48:51.826Z,20.70
2022-08-17T01:51:20.289Z,20.70
2022-08-17T01:53:53.988Z,20.70
2022-08-17T01:56:23.718Z,20.70
2022-08-17T01:58:51.823Z,20.70
2022-08-17T02:01:21.919Z,20.80
2022-08-17T02:03:53.337Z,20.80
2022-08-17T02:06:28.483Z,20.80
2022-08-17T02:09:02.850Z,20.80
2022-08-17T02:11:33.247Z,20.40
2022-08-17T02:14:03.190Z,20.20
2022-08-17T02:16:36.879Z,20.00
2022-08-17T02:19:11.254Z,19.90
2022-08-17T02:21:39.357Z,19.80
2022-08-17T02:24:10.886Z,19.80
2022-08-17T02:26:40.919Z,19.60
2022-08-17T02:29:07.960Z,19.60
2022-08-17T02:31:35.545Z,19.60
2022-08-17T02:34:04.778Z,19.70
2022-08-17T02:36:35.336Z,19.70
2022-08-17T02:39:08.555Z,19.70
2022-08-17T02:41:36.547Z,19.70
2022-08-17T02:44:04.326Z,19.80
2022-08-17T02:46:32.229Z,19.80
2022-08-17T02:48:59.561Z,19.80
2022-08-17T02:51:27.260Z,19.80
2022-08-17T02:54:02.061Z,19.80
2022-08-17T02:56:41.090Z,19.90
2022-08-17T02:59:08.092Z,19.80
2022-08-17T03:01:34.921Z,19.90
2022-08-17T03:04:01.945Z,19.90
2022-08-17T03:06:29.203Z,19.80
2022-08-17T03:08:56.137Z,19.90
2022-08-17T03:11:23.531Z,19.90
2022-08-17T03:13:51.045Z,19.90
2022-08-17T03:16:17.898Z,19.90
2022-08-17T03:18:44.794Z,19.90
2022-08-17T03:21:11.636Z,19.90
2022-08-17T03:23:42.145Z,19.90
2022-08-17T03:26:12.396Z,19.90
2022-08-17T03:28:42.680Z,19.90
2022-08-17T03:31:09.654Z,19.90
2022-08-17T03:33:36.497Z,19.90
2022-08-17T03:36:03.684Z,19.90
2022-08-17T03:38:38.926Z,19.90
2022-08-17T03:41:09.622Z,19.80
2022-08-17T03:43:36.527Z,19.80
2022-08-17T03:46:28.528Z,19.80
2022-08-17T03:49:19.561Z,19.80
2022-08-17T03:52:07.758Z,19.70
2022-08-17T03:54:53.382Z,19.70
2022-08-17T03:57:20.321Z,19.70
2022-08-17T03:59:47.663Z,19.60
2022-08-17T04:02:26.161Z,19.70
2022-08-17T04:04:53.822Z,19.60
2022-08-17T04:07:23.437Z,19.60
2022-08-17T04:09:50.412Z,19.60
2022-08-17T04:12:21.718Z,19.60
2022-08-17T04:14:53.124Z,19.60
2022-08-17T04:17:24.159Z,19.60
2022-08-17T04:19:51.460Z,19.60
2022-08-17T04:22:33.005Z,19.60
2022-08-17T04:25:14.736Z,19.60
2022-08-17T04:27:41.603Z,19.60
2022-08-17T04:30:09.310Z,19.60
2022-08-17T04:33:06.105Z,19.60
2022-08-17T04:35:41.164Z,19.50
2022-08-17T04:38:10.662Z,19.60
2022-08-17T04:40:56.622Z,19.60
2022-08-17T04:43:25.666Z,19.60
2022-08-17T04:45:59.453Z,19.60
2022-08-17T04:48:36.207Z,19.60
2022-08-17T04:51:08.046Z,19.60
2022-08-17T04:53:35.240Z,19.60
2022-08-17T04:56:02.562Z,19.60
2022-08-17T04:58:29.397Z,19.60
2022-08-17T05:00:56.306Z,19.70
2022-08-17T05:03:23.257Z,19.70
2022-08-17T05:05:50.141Z,19.70
2022-08-17T05:08:19.280Z,19.80
2022-08-17T05:10:47.186Z,19.70
2022-08-17T05:13:20.365Z,19.70
2022-08-17T05:15:50.065Z,19.70
2022-08-17T05:18:17.505Z,19.70
2022-08-17T16:07:59.599Z,21.80
2022-08-17T16:10:35.228Z,21.80
2022-08-17T16:15:31.491Z,21.80
2022-08-17T16:17:58.995Z,21.80
2022-08-17T16:20:26.048Z,21.60
2022-08-17T16:22:54.129Z,21.60
2022-08-17T16:25:38.837Z,21.60
2022-08-17T16:28:13.302Z,21.60
2022-08-17T16:30:41.221Z,21.50
2022-08-17T16:33:11.536Z,21.60
2022-08-17T16:35:38.647Z,21.60
2022-08-17T16:38:07.155Z,21.60
2022-08-17T16:40:35.890Z,21.60
2022-08-17T16:43:04.172Z,21.60
2022-08-17T16:45:40.113Z,21.60
2022-08-17T16:48:08.700Z,21.60
2022-08-17T16:50:36.264Z,21.50
2022-08-17T16:53:18.741Z,21.60
2022-08-17T16:55:47.125Z,21.50
2022-08-17T16:58:14.740Z,21.50
2022-08-17T17:00:44.247Z,21.50
2022-08-17T17:03:24.784Z,21.50
2022-08-17T17:06:18.772Z,21.50
2022-08-17T17:08:53.801Z,21.50
2022-08-17T17:11:34.088Z,21.60
2022-08-17T17:14:06.091Z,21.50
2022-08-17T17:16:57.662Z,21.40
2022-08-17T17:20:00.490Z,21.40
2022-08-17T17:22:37.556Z,21.40
2022-08-17T17:25:19.277Z,21.30
2022-08-17T17:28:14.123Z,21.30
2022-08-17T17:31:02.076Z,21.30
2022-08-17T17:33:40.406Z,21.40
2022-08-17T17:36:22.624Z,21.30
2022-08-17T17:38:53.882Z,21.30
2022-08-17T17:41:29.509Z,21.30
2022-08-17T17:46:35.269Z,21.30
2022-08-17T17:49:02.225Z,21.30
2022-08-17T17:52:06.778Z,21.30
2022-08-17T17:54:52.748Z,21.30
2022-08-17T17:57:41.831Z,21.20
2022-08-17T18:00:14.831Z,21.20
2022-08-17T18:03:03.247Z,21.10
2022-08-17T18:06:08.149Z,21.10
2022-08-17T18:08:59.538Z,21.00
2022-08-17T18:11:37.101Z,21.10
2022-08-17T18:14:19.161Z,21.00
2022-08-17T18:16:48.037Z,20.90
2022-08-17T18:19:20.738Z,20.90
2022-08-17T18:21:52.867Z,20.90
2022-08-17T18:24:37.952Z,20.80
2022-08-17T18:27:33.178Z,20.80
2022-08-17T18:30:22.421Z,20.80
2022-08-17T18:32:49.547Z,20.80
2022-08-17T18:35:19.516Z,20.80
2022-08-17T18:37:49.153Z,21.10
2022-08-17T18:40:19.530Z,20.80
2022-08-17T18:43:03.022Z,20.70
2022-08-17T18:46:02.006Z,20.70
2022-08-17T18:48:48.718Z,20.70
2022-08-17T18:51:45.855Z,20.70
2022-08-17T18:54:24.868Z,20.70
2022-08-17T18:56:59.497Z,20.70
2022-08-17T18:59:31.740Z,20.60
2022-08-17T19:02:21.599Z,20.50
2022-08-17T19:05:09.900Z,20.60
2022-08-17T19:07:45.040Z,20.40
2022-08-17T19:10:18.926Z,20.40
2022-08-17T19:12:48.902Z,20.40
2022-08-17T19:15:20.958Z,20.40
2022-08-17T19:18:06.801Z,20.30
2022-08-17T19:20:42.718Z,20.30
2022-08-17T19:23:12.966Z,20.30
2022-08-17T19:25:51.032Z,20.20
2022-08-17T19:28:25.172Z,20.20
2022-08-17T19:30:58.332Z,20.10
2022-08-17T19:33:27.234Z,20.10
2022-08-17T19:36:11.339Z,20.10
2022-08-17T19:38:50.558Z,20.10
2022-08-17T19:41:20.052Z,20.10
2022-08-17T19:44:02.288Z,20.00
2022-08-17T19:47:02.123Z,20.00
2022-08-17T19:49:49.127Z,20.00
2022-08-17T19:52:29.484Z,20.00
2022-08-17T19:55:20.817Z,19.90
2022-08-17T19:57:47.845Z,19.90
2022-08-17T20:00:17.007Z,19.90
2022-08-17T20:03:16.201Z,19.90
2022-08-17T20:06:14.014Z,19.90
2022-08-17T20:08:59.038Z,19.90
2022-08-17T20:11:37.407Z,20.00
2022-08-17T20:14:14.954Z,20.00
2022-08-17T20:16:42.449Z,19.90
2022-08-17T20:19:48.667Z,19.90
2022-08-17T20:22:31.733Z,20.00
2022-08-17T20:25:30.618Z,19.90
2022-08-17T20:28:06.387Z,19.90
2022-08-17T20:30:39.634Z,19.90
2022-08-17T20:33:22.048Z,19.90
2022-08-17T20:36:03.000Z,19.90
2022-08-17T20:38:46.069Z,19.80
2022-08-17T20:41:25.193Z,19.80
2022-08-17T20:43:58.889Z,19.80
2022-08-17T20:46:40.726Z,19.80
2022-08-17T20:49:40.078Z,19.80
2022-08-17T20:52:16.628Z,19.80
2022-08-17T20:54:53.004Z,19.80
2022-08-17T20:57:32.071Z,19.90
2022-08-17T21:00:30.082Z,19.90
2022-08-17T21:03:50.567Z,19.80
2022-08-17T21:06:21.265Z,19.80
2022-08-17T21:08:58.964Z,19.80
2022-08-17T21:12:02.285Z,19.80
2022-08-17T21:14:18.448Z,19.80
2022-08-17T21:17:33.299Z,19.70
2022-08-17T21:20:23.563Z,19.70
2022-08-17T21:23:08.020Z,19.70
2022-08-17T21:25:40.763Z,19.70
2022-08-17T21:28:34.251Z,19.70
2022-08-17T21:31:08.527Z,19.60
2022-08-17T21:33:39.114Z,19.60
2022-08-17T21:36:12.076Z,19.60
2022-08-17T21:38:47.503Z,19.50
2022-08-17T21:41:27.356Z,19.50
2022-08-17T21:44:05.240Z,19.50
2022-08-17T21:46:37.592Z,19.40
2022-08-17T21:49:13.820Z,19.50
2022-08-17T21:51:54.115Z,19.40
2022-08-17T21:54:42.550Z,19.40
2022-08-17T21:57:17.516Z,19.40
2022-08-17T21:59:44.754Z,19.40
2022-08-17T22:02:22.054Z,19.40
2022-08-17T22:05:07.847Z,19.40
2022-08-17T22:07:42.916Z,19.40
2022-08-17T22:10:31.593Z,19.30
2022-08-17T22:13:23.171Z,19.40
2022-08-17T22:16:28.639Z,19.40
2022-08-17T22:18:58.800Z,19.30
2022-08-17T22:21:25.811Z,19.30
2022-08-17T22:24:24.638Z,19.30
2022-08-17T22:27:00.353Z,19.30
2022-08-17T22:29:59.999Z,19.30
2022-08-17T22:32:34.973Z,19.30
2022-08-17T22:35:32.777Z,19.30
2022-08-17T22:38:18.577Z,19.50
2022-08-17T22:40:50.969Z,19.40
2022-08-17T22:43:24.242Z,19.30
2022-08-17T22:45:56.837Z,19.40
2022-08-17T22:48:27.327Z,19.40
2022-08-17T22:51:17.628Z,19.30
2022-08-17T22:54:31.735Z,19.30
2022-08-17T22:57:20.709Z,19.30
2022-08-17T22:59:50.932Z,19.40
2022-08-17T23:02:26.067Z,19.40
2022-08-17T23:05:10.836Z,19.30
2022-08-17T23:07:37.642Z,19.30
2022-08-17T23:10:08.165Z,19.30
2022-08-17T23:12:39.678Z,19.30
2022-08-17T23:15:15.555Z,19.30
2022-08-17T23:17:42.695Z,19.30
2022-08-17T23:30:40.006Z,19.20
2022-08-17T23:33:54.683Z,19.30
2022-08-17T23:36:23.626Z,19.30
2022-08-17T23:38:50.479Z,19.30
2022-08-17T23:41:21.408Z,19.40
2022-08-17T23:43:51.442Z,19.30
2022-08-17T23:46:24.485Z,19.30
2022-08-17T23:48:54.169Z,19.30
2022-08-17T23:51:25.483Z,19.30
2022-08-17T23:54:07.214Z,19.30
2022-08-17T23:56:38.279Z,19.30
2022-08-17T23:59:07.318Z,19.30
